createdAt,value
2023-05-16T00:00:27.968Z,0.20
2023-05-16T00:02:55.866Z,0.20
2023-05-16T00:05:22.952Z,0.30
2023-05-16T00:07:49.905Z,0.20
2023-05-16T00:10:16.900Z,0.20
2023-05-16T00:12:54.675Z,0.30
2023-05-16T00:15:33.329Z,0.30
2023-05-16T00:18:00.381Z,0.30
2023-05-16T00:20:28.759Z,0.32
2023-05-16T00:22:56.585Z,0.20
2023-05-16T00:25:26.529Z,0.40
2023-05-16T00:27:53.386Z,0.20
2023-05-16T00:30:20.436Z,0.30
2023-05-16T00:32:49.013Z,0.20
2023-05-16T00:35:17.082Z,0.20
2023-05-16T00:37:44.013Z,0.20
2023-05-16T00:40:11.736Z,0.25
2023-05-16T00:42:39.244Z,0.20
2023-05-16T00:45:10.113Z,0.30
2023-05-16T00:47:37.200Z,0.30
2023-05-16T00:50:12.219Z,0.30
2023-05-16T00:52:39.434Z,0.35
2023-05-16T00:55:07.562Z,0.30
2023-05-16T00:57:34.632Z,0.20
2023-05-16T01:00:01.620Z,0.30
2023-05-16T01:02:29.409Z,0.30
2023-05-16T01:04:56.777Z,0.30
2023-05-16T01:07:25.227Z,0.30
2023-05-16T01:09:52.425Z,0.30
2023-05-16T01:12:28.792Z,0.30
2023-05-16T01:15:04.046Z,0.30
2023-05-16T01:17:46.268Z,0.30
2023-05-16T01:20:20.067Z,0.30
2023-05-16T01:23:00.247Z,0.30
2023-05-16T01:25:46.480Z,0.30
2023-05-16T01:28:18.783Z,0.38
2023-05-16T01:30:46.510Z,0.30
2023-05-16T01:33:13.799Z,0.30
2023-05-16T01:35:48.827Z,0.30
2023-05-16T01:38:20.535Z,0.30
2023-05-16T01:40:53.814Z,0.30
2023-05-16T01:43:30.829Z,0.40
2023-05-16T01:46:03.903Z,0.30
2023-05-16T01:48:43.223Z,0.30
2023-05-16T01:51:12.792Z,0.40
2023-05-16T01:53:39.830Z,0.30
2023-05-16T01:56:11.215Z,0.30
2023-05-16T01:58:40.985Z,0.40
2023-05-16T02:17:48.376Z,0.40
2023-05-16T02:20:15.709Z,0.20
2023-05-16T02:32:36.737Z,0.30
2023-05-16T02:35:06.006Z,0.40
2023-05-16T02:37:33.107Z,0.30
2023-05-16T02:48:27.230Z,0.32
2023-05-16T02:51:47.693Z,0.35
2023-05-16T02:54:51.896Z,0.40
2023-05-16T02:58:01.073Z,0.40
2023-05-16T03:00:42.119Z,0.30
2023-05-16T03:03:14.636Z,0.40
2023-05-16T03:05:41.726Z,0.30
2023-05-16T03:08:11.083Z,0.30
2023-05-16T03:10:37.985Z,0.40
2023-05-16T03:13:04.931Z,0.30
2023-05-16T03:15:32.185Z,0.40
2023-05-16T03:17:59.300Z,1.40
2023-05-16T03:20:26.434Z,0.30
2023-05-16T03:22:53.604Z,0.30
2023-05-16T03:25:21.989Z,0.40
2023-05-16T03:27:51.383Z,0.30
2023-05-16T03:30:19.809Z,0.40
2023-05-16T03:32:47.100Z,0.38
2023-05-16T03:35:14.307Z,0.30
2023-05-16T03:37:41.295Z,0.40
2023-05-16T03:40:09.433Z,0.38
2023-05-16T03:42:37.874Z,0.32
2023-05-16T03:45:07.005Z,0.40
2023-05-16T03:47:34.189Z,0.40
2023-05-16T03:50:01.404Z,0.50
2023-05-16T03:52:28.752Z,0.30
2023-05-16T03:54:55.802Z,0.40
2023-05-16T03:57:22.944Z,0.30
2023-05-16T03:59:51.298Z,0.40
2023-05-16T04:02:18.965Z,0.30
2023-05-16T04:04:46.600Z,0.40
2023-05-16T04:07:13.601Z,0.30
2023-05-16T04:09:40.493Z,0.40
2023-05-16T04:12:08.173Z,0.30
2023-05-16T04:14:35.533Z,0.40
2023-05-16T04:17:04.003Z,0.40
2023-05-16T04:19:31.152Z,0.40
2023-05-16T04:21:58.111Z,0.40
2023-05-16T04:24:28.983Z,0.45
2023-05-16T04:26:56.253Z,0.30
2023-05-16T04:29:23.527Z,0.30
2023-05-16T04:31:50.513Z,0.30
2023-05-16T04:34:18.942Z,0.30
2023-05-16T04:36:45.789Z,0.30
2023-05-16T04:39:13.653Z,0.40
2023-05-16T04:41:40.959Z,0.30
2023-05-16T04:44:11.111Z,0.30
2023-05-16T04:46:38.202Z,0.30
2023-05-16T04:49:05.213Z,0.30
2023-05-16T04:51:33.907Z,0.30
2023-05-16T04:54:01.288Z,0.30
2023-05-16T04:56:28.170Z,0.30
2023-05-16T04:58:55.323Z,0.40
2023-05-16T05:01:22.350Z,0.30
2023-05-16T05:03:52.276Z,0.30
2023-05-16T05:06:19.203Z,0.30
2023-05-16T05:08:47.902Z,0.40
2023-05-16T05:11:15.063Z,0.30
2023-05-16T05:13:42.088Z,0.32
2023-05-16T05:16:10.910Z,0.20
2023-05-16T05:18:38.118Z,0.30
2023-05-16T05:21:05.336Z,0.30
2023-05-16T05:23:33.043Z,0.30
2023-05-16T05:26:02.582Z,0.22
2023-05-16T05:28:29.552Z,0.32
2023-05-16T05:30:56.509Z,0.30
2023-05-16T05:33:28.411Z,0.30
2023-05-16T05:35:58.656Z,0.30
2023-05-16T05:38:25.811Z,0.20
2023-05-16T05:40:52.959Z,0.30
2023-05-16T05:43:21.290Z,0.30
2023-05-16T05:45:48.572Z,0.35
2023-05-16T05:48:15.908Z,0.25
2023-05-16T05:50:42.972Z,0.20
2023-05-16T05:53:10.047Z,0.20
2023-05-16T05:55:36.980Z,0.20
2023-05-16T05:58:06.311Z,0.20
2023-05-16T06:00:35.614Z,0.20
2023-05-16T06:03:02.702Z,0.20
2023-05-16T06:05:29.955Z,0.20
2023-05-16T06:07:57.402Z,0.20
2023-05-16T06:10:24.561Z,0.20
2023-05-16T06:12:52.037Z,0.20
2023-05-16T06:15:19.302Z,0.20
2023-05-16T06:17:47.663Z,0.20
2023-05-16T06:20:14.855Z,0.20
2023-05-16T06:22:41.782Z,0.30
2023-05-16T06:25:09.328Z,0.20
2023-05-16T06:27:36.336Z,0.30
2023-05-16T06:30:03.588Z,0.30
2023-05-16T06:32:30.714Z,0.10
2023-05-16T06:34:59.008Z,0.20
2023-05-16T06:37:26.296Z,0.10
2023-05-16T06:39:53.262Z,0.20
2023-05-16T06:42:20.619Z,0.20
2023-05-16T06:44:47.811Z,0.20
2023-05-16T06:47:14.851Z,0.10
2023-05-16T06:49:41.830Z,1.00
2023-05-16T06:52:10.200Z,0.10
2023-05-16T06:54:37.190Z,0.20
2023-05-16T06:57:04.762Z,0.20
2023-05-16T06:59:31.754Z,0.10
2023-05-16T07:01:58.840Z,0.10
2023-05-16T07:04:25.868Z,0.10
2023-05-16T07:06:53.261Z,0.10
2023-05-16T07:09:21.931Z,0.10
2023-05-16T07:11:49.062Z,0.10
2023-05-16T07:14:15.990Z,0.00
2023-05-16T07:16:44.243Z,0.10
2023-05-16T07:19:11.646Z,0.00
2023-05-16T07:21:38.772Z,0.10
2023-05-16T07:24:06.726Z,0.10
2023-05-16T07:26:35.074Z,0.00
2023-05-16T07:29:03.297Z,0.10
2023-05-16T07:31:31.171Z,0.10
2023-05-16T07:33:58.314Z,0.10
2023-05-16T07:36:25.320Z,0.25
2023-05-16T07:38:52.315Z,0.10
2023-05-16T07:41:19.280Z,0.10
2023-05-16T07:43:47.792Z,0.10
2023-05-16T07:46:14.834Z,0.10
2023-05-16T07:48:41.970Z,0.00
2023-05-16T07:51:09.047Z,0.00
2023-05-16T07:53:35.986Z,0.10
2023-05-16T07:56:03.036Z,0.10
2023-05-16T07:58:30.449Z,0.10
2023-05-16T08:00:59.008Z,0.10
2023-05-16T08:03:26.280Z,0.00
2023-05-16T08:05:53.375Z,0.10
2023-05-16T08:08:20.653Z,0.10
2023-05-16T08:10:47.742Z,0.00
2023-05-16T08:13:25.174Z,0.00
2023-05-16T08:15:52.326Z,0.10
2023-05-16T08:18:22.594Z,0.00
2023-05-16T08:20:49.935Z,0.10
2023-05-16T08:23:16.987Z,0.00
2023-05-16T08:25:44.264Z,0.00
2023-05-16T08:28:11.281Z,0.00
2023-05-16T08:30:40.343Z,0.10
2023-05-16T08:33:30.365Z,0.05
2023-05-16T08:35:57.832Z,0.00
2023-05-16T08:38:24.900Z,0.00
2023-05-16T08:40:52.156Z,0.00
2023-05-16T08:43:19.158Z,0.00
2023-05-16T08:45:48.144Z,0.00
2023-05-16T08:48:17.390Z,0.00
2023-05-16T08:50:46.362Z,0.00
2023-05-16T08:53:17.527Z,0.00
2023-05-16T08:55:45.874Z,0.00
2023-05-16T08:58:13.566Z,0.00
2023-05-16T09:00:40.984Z,0.00
2023-05-16T09:03:08.677Z,0.00
2023-05-16T09:05:35.928Z,0.00
2023-05-16T09:08:07.853Z,0.00
2023-05-16T09:10:34.939Z,0.00
2023-05-16T09:13:01.920Z,0.05
2023-05-16T09:15:32.944Z,0.00
2023-05-16T09:18:02.616Z,0.00
2023-05-16T09:20:29.714Z,0.00
2023-05-16T09:22:58.430Z,0.00
2023-05-16T09:25:31.506Z,0.00
2023-05-16T09:28:01.727Z,0.00
2023-05-16T09:30:31.645Z,0.00
2023-05-16T09:32:59.866Z,0.00
2023-05-16T09:37:57.121Z,0.00
2023-05-16T09:40:26.222Z,0.00
2023-05-16T09:43:03.495Z,0.05
2023-05-16T09:45:31.587Z,0.00
2023-05-16T09:48:03.776Z,0.00
2023-05-16T09:50:33.455Z,0.00
2023-05-16T09:53:01.135Z,0.00
2023-05-16T09:55:29.713Z,0.00
2023-05-16T09:57:56.746Z,0.00
2023-05-16T10:00:29.594Z,0.00
2023-05-16T10:03:01.521Z,0.00
2023-05-16T10:05:31.143Z,0.00
2023-05-16T10:07:58.599Z,0.00
2023-05-16T10:10:28.558Z,0.00
2023-05-16T10:12:58.592Z,0.00
2023-05-16T10:15:27.197Z,0.00
2023-05-16T10:17:59.986Z,0.00
2023-05-16T10:20:28.114Z,0.00
2023-05-16T10:22:57.108Z,0.00
2023-05-16T10:25:29.612Z,0.00
2023-05-16T10:27:59.398Z,0.00
2023-05-16T10:30:27.425Z,0.00
2023-05-16T10:32:55.315Z,0.00
2023-05-16T10:35:23.087Z,0.00
2023-05-16T10:37:51.543Z,0.00
2023-05-16T10:40:19.588Z,0.00
2023-05-16T10:42:55.908Z,0.00
2023-05-16T10:45:25.119Z,0.00
2023-05-16T10:47:54.338Z,0.00
2023-05-16T10:50:35.313Z,0.00
2023-05-16T10:53:16.898Z,0.00
2023-05-16T10:55:51.415Z,0.00
2023-05-16T10:58:25.006Z,0.00
2023-05-16T11:01:18.228Z,0.00
2023-05-16T11:04:05.835Z,0.00
2023-05-16T11:06:34.089Z,0.00
2023-05-16T11:09:11.290Z,0.00
2023-05-16T11:11:45.578Z,0.35
2023-05-16T11:14:23.498Z,0.45
2023-05-16T11:17:03.431Z,0.00
2023-05-16T11:19:33.499Z,0.00
